createdAt,value
2024-01-29T00:01:12.552Z,1.37
2024-01-29T00:03:40.632Z,1.23
2024-01-29T00:06:08.316Z,1.28
2024-01-29T00:08:35.984Z,1.20
2024-01-29T00:11:03.913Z,1.16
2024-01-29T00:13:31.372Z,1.12
2024-01-29T00:16:00.880Z,1.16
2024-01-29T00:18:28.863Z,1.17
2024-01-29T00:20:58.633Z,1.18
2024-01-29T00:23:26.297Z,1.22
2024-01-29T00:25:53.946Z,1.22
2024-01-29T00:28:21.788Z,1.22
2024-01-29T00:30:49.697Z,1.09
2024-01-29T00:33:17.435Z,0.98
2024-01-29T00:35:45.205Z,1.09
2024-01-29T00:38:12.933Z,1.23
2024-01-29T00:40:40.616Z,0.72
2024-01-29T00:43:08.242Z,0.91
2024-01-29T00:45:35.976Z,0.83
2024-01-29T00:48:03.882Z,0.79
2024-01-29T00:50:31.630Z,0.77
2024-01-29T00:52:59.289Z,0.77
2024-01-29T00:55:28.308Z,0.83
2024-01-29T00:57:56.042Z,0.73
2024-01-29T01:00:23.814Z,0.76
2024-01-29T01:02:51.562Z,0.74
2024-01-29T01:05:19.541Z,0.76
2024-01-29T01:07:47.341Z,0.78
2024-01-29T01:10:15.119Z,0.88
2024-01-29T01:12:42.924Z,0.67
2024-01-29T01:15:10.844Z,0.67
2024-01-29T01:17:38.407Z,0.73
2024-01-29T01:20:07.604Z,0.67
2024-01-29T01:22:35.582Z,0.69
2024-01-29T01:25:03.610Z,0.64
2024-01-29T01:27:31.444Z,0.67
2024-01-29T01:29:59.139Z,0.69
2024-01-29T01:32:26.909Z,0.81
2024-01-29T01:34:54.738Z,0.70
2024-01-29T01:37:22.458Z,0.87
2024-01-29T01:39:54.282Z,0.77
2024-01-29T01:42:22.570Z,0.76
2024-01-29T01:44:50.420Z,0.79
2024-01-29T01:47:18.240Z,0.56
2024-01-29T01:49:46.058Z,0.48
2024-01-29T01:52:13.880Z,0.50
2024-01-29T01:54:41.808Z,0.50
2024-01-29T01:57:13.686Z,0.44
2024-01-29T01:59:41.576Z,0.57
2024-01-29T02:02:09.907Z,0.59
2024-01-29T02:04:37.941Z,0.52
2024-01-29T02:07:06.660Z,0.51
2024-01-29T02:09:34.932Z,0.54
2024-01-29T02:12:02.969Z,0.58
2024-01-29T02:14:30.929Z,0.49
2024-01-29T02:17:01.290Z,0.38
2024-01-29T02:19:29.124Z,0.16
2024-01-29T02:21:56.927Z,0.11
2024-01-29T02:24:24.773Z,0.29
2024-01-29T02:26:52.897Z,0.12
2024-01-29T02:29:20.690Z,0.20
2024-01-29T02:31:48.606Z,0.20
2024-01-29T02:34:17.361Z,0.41
2024-01-29T02:36:49.328Z,0.44
2024-01-29T02:39:19.614Z,0.29
2024-01-29T02:41:47.480Z,0.16
2024-01-29T02:44:15.213Z,0.30
2024-01-29T02:46:42.904Z,0.02
2024-01-29T02:49:10.737Z,-0.11
2024-01-29T02:51:38.666Z,0.01
2024-01-29T02:54:06.573Z,0.02
2024-01-29T02:56:34.607Z,0.04
2024-01-29T02:59:02.545Z,0.02
2024-01-29T03:01:30.753Z,0.17
2024-01-29T03:03:58.783Z,0.07
2024-01-29T03:06:26.678Z,-0.02
2024-01-29T03:08:54.706Z,0.06
2024-01-29T03:11:22.351Z,0.08
2024-01-29T03:13:50.284Z,0.14
2024-01-29T03:16:18.590Z,0.06
2024-01-29T03:18:46.642Z,-0.15
2024-01-29T03:21:15.234Z,0.05
2024-01-29T03:23:43.020Z,-0.11
2024-01-29T03:26:11.003Z,0.13
2024-01-29T03:28:38.994Z,0.23
2024-01-29T03:31:07.211Z,0.35
2024-01-29T03:33:35.154Z,0.14
2024-01-29T03:36:06.916Z,0.04
2024-01-29T03:38:34.689Z,0.02
2024-01-29T03:41:02.317Z,0.09
2024-01-29T03:43:33.654Z,0.08
2024-01-29T03:46:01.500Z,0.13
2024-01-29T03:48:30.018Z,0.08
2024-01-29T03:50:57.759Z,0.08
2024-01-29T03:53:25.586Z,0.05
2024-01-29T03:55:54.025Z,0.02
2024-01-29T03:58:22.340Z,0.09
2024-01-29T04:00:50.161Z,0.22
2024-01-29T04:03:17.977Z,0.29
2024-01-29T04:05:46.396Z,0.30
2024-01-29T04:08:14.137Z,0.20
2024-01-29T04:10:41.777Z,0.04
2024-01-29T04:13:09.552Z,0.14
2024-01-29T04:15:37.322Z,0.13
2024-01-29T04:18:05.348Z,0.10
2024-01-29T04:20:32.968Z,0.03
2024-01-29T04:23:00.606Z,0.02
2024-01-29T04:25:28.339Z,0.21
2024-01-29T04:27:56.397Z,-0.01
2024-01-29T04:30:30.912Z,0.10
2024-01-29T04:33:11.006Z,0.26
2024-01-29T04:35:38.807Z,0.14
2024-01-29T04:38:06.493Z,0.09
2024-01-29T04:40:40.104Z,0.01
2024-01-29T04:43:07.858Z,-0.07
2024-01-29T04:45:35.626Z,0.19
2024-01-29T04:48:03.796Z,0.10
2024-01-29T04:50:31.552Z,-0.01
2024-01-29T04:52:59.358Z,-0.15
2024-01-29T04:55:27.133Z,-0.15
2024-01-29T04:57:55.073Z,-0.01
2024-01-29T05:00:22.830Z,0.05
2024-01-29T05:02:50.386Z,0.06
2024-01-29T05:05:18.291Z,0.18
2024-01-29T05:07:45.970Z,0.22
2024-01-29T05:10:13.811Z,0.22
2024-01-29T05:12:41.665Z,0.23
2024-01-29T05:15:09.420Z,0.20
2024-01-29T05:17:37.422Z,0.23
2024-01-29T05:20:06.045Z,0.25
2024-01-29T05:22:33.898Z,0.10
2024-01-29T05:25:01.816Z,0.06
2024-01-29T05:27:29.667Z,0.11
2024-01-29T05:29:57.454Z,0.32
2024-01-29T05:32:25.188Z,0.37
2024-01-29T05:34:53.031Z,0.36
2024-01-29T05:37:20.868Z,0.45
2024-01-29T05:39:48.742Z,0.34
2024-01-29T05:42:16.540Z,0.44
2024-01-29T05:44:44.173Z,0.44
2024-01-29T05:47:11.915Z,0.34
2024-01-29T05:49:40.229Z,0.46
2024-01-29T05:52:07.991Z,0.45
2024-01-29T05:54:35.840Z,0.41
2024-01-29T05:57:03.972Z,0.39
2024-01-29T05:59:31.650Z,0.35
2024-01-29T06:01:59.591Z,0.38
2024-01-29T06:04:27.699Z,0.24
2024-01-29T06:06:55.607Z,0.39
2024-01-29T06:09:26.371Z,0.19
2024-01-29T06:11:55.793Z,0.14
2024-01-29T06:14:23.841Z,0.04
2024-01-29T06:16:51.571Z,0.19
2024-01-29T06:19:20.673Z,0.08
2024-01-29T06:21:49.977Z,0.10
2024-01-29T06:24:18.145Z,0.25
2024-01-29T06:26:48.907Z,0.33
2024-01-29T06:29:17.355Z,0.30
2024-01-29T06:31:45.191Z,0.08
2024-01-29T06:34:12.935Z,0.09
2024-01-29T06:36:40.812Z,0.09
2024-01-29T06:39:09.159Z,0.27
2024-01-29T06:41:36.942Z,0.44
2024-01-29T06:44:04.786Z,0.54
2024-01-29T06:46:33.802Z,0.56
2024-01-29T06:49:01.426Z,0.36
2024-01-29T06:51:29.293Z,0.54
2024-01-29T06:53:58.925Z,0.57
2024-01-29T06:56:26.831Z,0.37
2024-01-29T06:58:54.619Z,0.25
2024-01-29T07:01:22.474Z,0.23
2024-01-29T07:03:50.520Z,0.37
2024-01-29T07:06:18.552Z,0.40
2024-01-29T07:08:46.266Z,0.56
2024-01-29T07:11:14.121Z,0.33
2024-01-29T07:13:41.943Z,0.09
2024-01-29T07:16:09.957Z,0.10
2024-01-29T07:18:38.958Z,0.25
2024-01-29T07:21:07.710Z,0.08
2024-01-29T07:23:35.460Z,-0.04
2024-01-29T07:26:03.493Z,0.03
2024-01-29T07:28:32.761Z,-0.09
2024-01-29T07:31:00.438Z,0.04
2024-01-29T07:33:28.358Z,0.06
2024-01-29T07:35:56.680Z,0.03
2024-01-29T07:38:24.878Z,0.21
2024-01-29T07:40:52.652Z,0.33
2024-01-29T07:43:20.497Z,0.52
2024-01-29T07:45:48.229Z,0.20
2024-01-29T07:48:16.120Z,0.05
2024-01-29T07:50:43.948Z,-0.10
2024-01-29T07:53:11.679Z,0.10
2024-01-29T07:55:39.551Z,0.01
2024-01-29T07:58:08.774Z,0.01
2024-01-29T08:00:36.806Z,0.24
2024-01-29T08:03:05.142Z,0.31
2024-01-29T08:05:33.337Z,0.30
2024-01-29T08:08:01.172Z,0.43
2024-01-29T08:10:28.791Z,0.39
2024-01-29T08:12:56.486Z,0.33
2024-01-29T08:15:25.148Z,0.40
2024-01-29T08:17:53.072Z,0.48
2024-01-29T08:20:21.249Z,0.71
2024-01-29T08:22:49.013Z,0.95
2024-01-29T08:25:16.913Z,0.84
2024-01-29T08:27:44.521Z,0.82
2024-01-29T08:30:12.406Z,1.01
2024-01-29T08:32:41.301Z,0.95
2024-01-29T08:35:10.334Z,1.17
2024-01-29T08:37:38.254Z,0.93
2024-01-29T08:40:07.070Z,0.99
2024-01-29T08:42:34.831Z,1.24
2024-01-29T08:45:02.662Z,1.14
2024-01-29T08:47:30.738Z,1.37
2024-01-29T08:49:58.831Z,1.11
2024-01-29T08:52:26.676Z,1.08
2024-01-29T08:54:54.616Z,1.23
2024-01-29T08:57:22.245Z,1.23
2024-01-29T08:59:50.035Z,1.24
2024-01-29T09:02:17.785Z,1.34
2024-01-29T09:04:45.647Z,1.33
2024-01-29T09:07:13.787Z,1.47
2024-01-29T09:09:43.026Z,1.40
2024-01-29T09:12:11.011Z,1.51
2024-01-29T09:14:38.684Z,1.53
2024-01-29T09:17:06.470Z,1.49
2024-01-29T09:19:34.393Z,1.52
2024-01-29T09:22:02.162Z,1.52
2024-01-29T09:24:31.337Z,1.47
2024-01-29T09:26:59.938Z,1.46
2024-01-29T09:29:27.652Z,1.23
2024-01-29T09:31:55.360Z,1.33
2024-01-29T09:34:26.267Z,1.43
2024-01-29T09:36:54.582Z,1.50
2024-01-29T09:39:25.037Z,1.56
2024-01-29T09:41:53.456Z,1.71
2024-01-29T09:44:22.644Z,1.90
2024-01-29T09:46:51.274Z,1.85
2024-01-29T09:49:19.530Z,1.78
2024-01-29T09:51:48.577Z,1.79
2024-01-29T09:54:16.437Z,1.77
2024-01-29T09:56:44.231Z,1.75
2024-01-29T09:59:12.021Z,1.95
2024-01-29T10:01:42.124Z,1.59
2024-01-29T10:04:10.223Z,1.93
2024-01-29T10:06:38.066Z,1.77
2024-01-29T10:09:06.177Z,1.84
2024-01-29T10:11:33.969Z,1.98
2024-01-29T10:14:01.977Z,1.87
2024-01-29T10:16:29.997Z,1.92
2024-01-29T10:18:59.273Z,2.06
2024-01-29T10:21:27.733Z,1.93
2024-01-29T10:23:58.964Z,2.01
2024-01-29T10:26:28.153Z,2.19
2024-01-29T10:29:07.032Z,2.31
2024-01-29T10:31:35.070Z,2.16
2024-01-29T10:34:04.988Z,2.25
2024-01-29T10:36:33.497Z,2.36
2024-01-29T10:39:01.517Z,2.34
2024-01-29T10:41:33.345Z,2.45
2024-01-29T10:44:04.059Z,2.53
2024-01-29T10:46:37.691Z,2.61
2024-01-29T10:49:06.244Z,2.51
2024-01-29T10:51:35.440Z,2.78
2024-01-29T10:54:03.569Z,2.75
2024-01-29T10:56:31.912Z,2.64
2024-01-29T10:59:03.195Z,2.41
2024-01-29T11:01:32.539Z,2.50
2024-01-29T11:04:02.370Z,2.56
2024-01-29T11:06:48.459Z,2.60
2024-01-29T11:09:20.747Z,2.41
2024-01-29T11:11:49.960Z,2.50
2024-01-29T11:14:21.186Z,2.68
2024-01-29T11:16:53.192Z,2.41
2024-01-29T11:19:25.107Z,2.63
2024-01-29T11:21:53.012Z,2.70
2024-01-29T11:24:24.119Z,2.51
2024-01-29T11:26:54.554Z,2.49
2024-01-29T11:29:24.058Z,2.50
2024-01-29T11:31:55.255Z,2.73
2024-01-29T11:34:30.211Z,2.93
2024-01-29T11:36:58.889Z,2.73
2024-01-29T11:39:28.766Z,2.62
2024-01-29T11:41:57.708Z,2.84
2024-01-29T11:44:27.130Z,2.67
2024-01-29T11:46:56.662Z,2.63
2024-01-29T11:49:28.177Z,2.87
2024-01-29T11:51:56.473Z,2.67
2024-01-29T11:54:25.542Z,2.86
2024-01-29T11:56:53.362Z,3.01
2024-01-29T11:59:21.113Z,3.00
2024-01-29T12:01:51.448Z,3.17
2024-01-29T12:04:19.602Z,2.93
2024-01-29T12:06:47.511Z,3.12
2024-01-29T12:09:15.780Z,3.28
2024-01-29T12:11:43.562Z,3.32
2024-01-29T12:14:11.342Z,3.49
2024-01-29T12:16:39.132Z,3.47
2024-01-29T12:19:07.043Z,3.68
2024-01-29T12:21:36.311Z,3.83
2024-01-29T12:24:04.480Z,3.89
2024-01-29T12:26:32.375Z,3.93
2024-01-29T12:29:02.896Z,3.96
2024-01-29T12:31:31.728Z,3.90
2024-01-29T12:33:59.598Z,3.89
2024-01-29T12:36:27.554Z,3.96
2024-01-29T12:38:58.662Z,4.11
2024-01-29T12:41:34.805Z,4.00
2024-01-29T12:44:12.750Z,4.14
2024-01-29T12:46:41.011Z,4.15
2024-01-29T12:49:09.199Z,4.14
2024-01-29T12:51:37.578Z,3.79
2024-01-29T12:54:06.224Z,4.22
2024-01-29T12:56:34.259Z,3.99
2024-01-29T12:59:07.871Z,4.44
2024-01-29T13:01:36.023Z,4.74
2024-01-29T13:04:04.338Z,4.72
2024-01-29T13:06:32.468Z,4.85
2024-01-29T13:09:00.226Z,5.05
2024-01-29T13:11:28.162Z,4.85
2024-01-29T13:13:56.007Z,5.15
2024-01-29T13:16:23.877Z,5.00
2024-01-29T13:18:51.835Z,5.34
2024-01-29T13:21:22.381Z,5.14
2024-01-29T13:23:50.311Z,5.10
2024-01-29T13:26:19.405Z,5.22
2024-01-29T13:28:47.310Z,4.98
2024-01-29T13:31:15.280Z,5.06
2024-01-29T13:33:43.411Z,5.12
2024-01-29T13:36:11.381Z,5.02
2024-01-29T13:38:40.055Z,4.92
2024-01-29T13:41:10.509Z,5.06
2024-01-29T13:43:38.518Z,4.96
2024-01-29T13:46:06.339Z,4.88
2024-01-29T13:48:34.629Z,4.93
2024-01-29T13:51:02.958Z,4.90
2024-01-29T13:53:30.741Z,4.98
2024-01-29T13:55:58.469Z,5.05
2024-01-29T13:58:26.820Z,5.20
2024-01-29T14:00:54.697Z,5.14
2024-01-29T14:03:22.777Z,5.13
2024-01-29T14:05:50.404Z,5.25
2024-01-29T14:08:18.016Z,5.32
2024-01-29T14:10:45.839Z,5.23
2024-01-29T14:13:17.237Z,5.09
2024-01-29T14:15:45.245Z,5.11
2024-01-29T14:18:13.036Z,5.05
2024-01-29T14:20:40.825Z,5.11
2024-01-29T14:23:09.531Z,5.29
2024-01-29T14:25:37.262Z,5.23
2024-01-29T14:28:05.327Z,5.11
2024-01-29T14:30:33.166Z,5.02
2024-01-29T14:33:01.267Z,5.03
2024-01-29T14:35:29.076Z,5.04
2024-01-29T14:37:56.893Z,5.07
2024-01-29T14:40:24.733Z,5.11
2024-01-29T14:42:52.506Z,5.11
2024-01-29T14:45:20.379Z,4.99
2024-01-29T14:47:50.012Z,5.01
2024-01-29T14:50:17.835Z,4.99
2024-01-29T14:52:45.462Z,5.06
2024-01-29T14:55:13.201Z,5.16
2024-01-29T14:57:42.169Z,5.14
2024-01-29T15:00:10.409Z,5.09
2024-01-29T15:02:38.237Z,5.09
2024-01-29T15:05:10.191Z,5.07
2024-01-29T15:07:40.441Z,5.08
2024-01-29T15:10:12.995Z,5.17
2024-01-29T15:12:44.581Z,5.13
2024-01-29T15:15:12.565Z,5.11
2024-01-29T15:17:40.450Z,5.07
2024-01-29T15:20:09.697Z,4.82
2024-01-29T15:22:37.653Z,4.71
2024-01-29T15:25:06.678Z,4.68
2024-01-29T15:27:34.624Z,4.58
2024-01-29T15:30:02.616Z,4.58
2024-01-29T15:32:32.145Z,4.62
2024-01-29T15:34:59.850Z,4.62
2024-01-29T15:37:28.785Z,4.51
2024-01-29T15:39:56.569Z,4.46
2024-01-29T15:42:29.934Z,4.40
2024-01-29T15:44:57.705Z,4.34
2024-01-29T15:47:25.686Z,4.24
2024-01-29T15:49:53.440Z,4.15
2024-01-29T15:52:21.268Z,4.09
2024-01-29T15:54:48.962Z,4.00
2024-01-29T15:57:16.847Z,3.90
2024-01-29T15:59:46.435Z,3.89
2024-01-29T16:02:14.255Z,3.81
2024-01-29T16:04:44.136Z,3.76
2024-01-29T16:07:12.228Z,3.68
2024-01-29T16:09:40.163Z,3.64
2024-01-29T16:12:08.385Z,3.54
2024-01-29T16:14:36.873Z,3.50
2024-01-29T16:17:05.386Z,3.45
2024-01-29T16:19:33.286Z,3.43
2024-01-29T16:22:01.021Z,3.40
2024-01-29T16:24:28.885Z,3.36
2024-01-29T16:26:56.612Z,3.28
2024-01-29T16:29:26.121Z,3.20
2024-01-29T16:31:54.216Z,3.20
2024-01-29T16:34:23.609Z,3.15
2024-01-29T16:36:52.607Z,3.11
2024-01-29T16:39:20.811Z,3.08
2024-01-29T16:41:48.537Z,2.98
2024-01-29T16:44:16.996Z,2.97
2024-01-29T16:46:44.784Z,2.92
2024-01-29T16:49:12.624Z,2.90
2024-01-29T16:51:40.598Z,2.90
2024-01-29T16:54:08.390Z,2.91
2024-01-29T16:56:38.622Z,2.87
2024-01-29T16:59:08.742Z,2.77
2024-01-29T17:01:37.118Z,2.88
2024-01-29T17:04:05.255Z,2.73
2024-01-29T17:06:33.224Z,2.72
2024-01-29T17:09:01.190Z,2.69
2024-01-29T17:11:28.966Z,2.58
2024-01-29T17:13:56.714Z,2.47
2024-01-29T17:16:25.282Z,2.46
2024-01-29T17:18:53.181Z,2.38
2024-01-29T17:21:21.845Z,2.43
2024-01-29T17:23:49.798Z,2.45
2024-01-29T17:26:17.529Z,2.45
2024-01-29T17:28:46.346Z,2.38
2024-01-29T17:31:14.530Z,2.35
2024-01-29T17:33:42.424Z,2.29
2024-01-29T17:36:10.513Z,2.25
2024-01-29T17:38:38.301Z,2.23
2024-01-29T17:41:06.252Z,2.18
2024-01-29T17:43:34.026Z,2.18
2024-01-29T17:46:02.003Z,2.22
2024-01-29T17:48:30.036Z,2.19
2024-01-29T17:50:57.880Z,2.24
2024-01-29T17:53:27.951Z,2.19
2024-01-29T17:55:57.828Z,2.17
2024-01-29T17:58:25.599Z,2.16
2024-01-29T18:00:56.539Z,2.14
2024-01-29T18:03:26.030Z,2.17
2024-01-29T18:05:54.437Z,2.12
2024-01-29T18:08:24.505Z,2.10
2024-01-29T18:10:53.378Z,2.04
2024-01-29T18:13:24.655Z,1.98
2024-01-29T18:15:53.464Z,1.96
2024-01-29T18:18:21.659Z,1.98
2024-01-29T18:20:49.580Z,2.00
2024-01-29T18:23:17.437Z,1.93
2024-01-29T18:25:45.811Z,1.90
2024-01-29T18:28:13.711Z,1.89
2024-01-29T18:30:41.559Z,1.84
2024-01-29T18:33:09.364Z,1.86
2024-01-29T18:35:37.225Z,1.86
2024-01-29T18:38:05.048Z,1.94
2024-01-29T18:40:36.563Z,1.97
2024-01-29T18:43:04.586Z,2.01
2024-01-29T18:45:32.581Z,1.98
2024-01-29T18:48:00.356Z,1.95
2024-01-29T18:50:28.641Z,1.98
2024-01-29T18:52:56.478Z,2.05
2024-01-29T18:55:25.284Z,2.00
2024-01-29T18:57:53.265Z,1.84
2024-01-29T19:00:21.362Z,1.86
2024-01-29T19:02:49.305Z,1.87
2024-01-29T19:05:17.417Z,1.84
2024-01-29T19:07:49.312Z,1.83
2024-01-29T19:10:17.315Z,1.82
2024-01-29T19:12:45.284Z,1.83
2024-01-29T19:15:13.039Z,1.71
2024-01-29T19:17:40.869Z,1.66
2024-01-29T19:20:10.363Z,1.65
2024-01-29T19:22:38.130Z,1.68
2024-01-29T19:25:07.104Z,1.69
2024-01-29T19:27:34.872Z,1.72
2024-01-29T19:30:02.748Z,1.70
2024-01-29T19:32:30.620Z,1.68
2024-01-29T19:34:58.547Z,1.63
2024-01-29T19:37:29.566Z,1.61
2024-01-29T19:40:01.969Z,1.65
2024-01-29T19:42:30.411Z,1.61
2024-01-29T19:44:58.426Z,1.49
2024-01-29T19:47:26.072Z,1.45
2024-01-29T19:49:57.654Z,1.42
2024-01-29T19:52:27.995Z,1.47
2024-01-29T19:54:55.755Z,1.46
2024-01-29T19:57:23.646Z,1.43
2024-01-29T19:59:51.265Z,1.43
2024-01-29T20:02:19.014Z,1.38
2024-01-29T20:04:47.090Z,1.36
2024-01-29T20:07:14.796Z,1.34
2024-01-29T20:09:42.720Z,1.40
2024-01-29T20:12:10.463Z,1.38
2024-01-29T20:14:39.048Z,1.41
2024-01-29T20:17:06.733Z,1.35
2024-01-29T20:19:34.529Z,1.35
2024-01-29T20:22:02.495Z,1.38
2024-01-29T20:24:30.306Z,1.39
2024-01-29T20:26:58.090Z,1.42
2024-01-29T20:29:25.776Z,1.43
2024-01-29T20:31:53.989Z,1.42
2024-01-29T20:34:21.831Z,1.44
2024-01-29T20:36:50.285Z,1.38
2024-01-29T20:39:18.271Z,1.29
2024-01-29T20:41:47.445Z,1.31
2024-01-29T20:44:16.179Z,1.29
2024-01-29T20:46:45.956Z,1.35
2024-01-29T20:49:14.398Z,1.40
2024-01-29T20:51:42.251Z,1.41
2024-01-29T20:54:13.342Z,1.42
2024-01-29T20:56:41.186Z,1.44
2024-01-29T20:59:09.242Z,1.46
2024-01-29T21:01:37.074Z,1.45
2024-01-29T21:04:05.609Z,1.43
2024-01-29T21:06:33.775Z,1.38
2024-01-29T21:09:01.737Z,1.39
2024-01-29T21:11:29.595Z,1.35
2024-01-29T21:13:57.577Z,1.35
2024-01-29T21:16:28.439Z,1.32
2024-01-29T21:18:59.114Z,1.27
2024-01-29T21:21:29.228Z,1.35
2024-01-29T21:23:56.963Z,1.31
2024-01-29T21:26:28.220Z,1.30
2024-01-29T21:28:56.128Z,1.30
2024-01-29T21:31:24.096Z,1.44
2024-01-29T21:33:51.772Z,1.35
2024-01-29T21:36:20.552Z,1.47
2024-01-29T21:38:48.234Z,1.50
2024-01-29T21:41:16.009Z,1.52
2024-01-29T21:43:43.744Z,1.34
2024-01-29T21:46:12.501Z,1.31
2024-01-29T21:48:40.257Z,1.24
2024-01-29T21:51:07.916Z,1.17
2024-01-29T21:53:36.066Z,1.11
2024-01-29T21:56:04.238Z,1.09
2024-01-29T21:58:32.328Z,1.04
2024-01-29T22:01:00.129Z,1.02
2024-01-29T22:03:27.928Z,1.04
2024-01-29T22:05:55.758Z,1.03
2024-01-29T22:08:23.390Z,0.97
2024-01-29T22:10:51.069Z,0.93
2024-01-29T22:13:18.872Z,0.95
2024-01-29T22:15:46.671Z,1.01
2024-01-29T22:18:14.301Z,1.00
2024-01-29T22:20:42.311Z,0.92
2024-01-29T22:23:10.056Z,0.94
2024-01-29T22:25:37.942Z,0.89
2024-01-29T22:28:06.682Z,0.88
2024-01-29T22:30:34.491Z,0.83
2024-01-29T22:33:02.195Z,0.82
2024-01-29T22:35:30.195Z,0.79
2024-01-29T22:37:57.940Z,0.83
2024-01-29T22:40:26.363Z,0.76
2024-01-29T22:42:53.917Z,0.74
2024-01-29T22:45:21.599Z,0.72
2024-01-29T22:47:50.352Z,0.80
2024-01-29T22:50:18.405Z,0.86
2024-01-29T22:52:46.345Z,0.85
2024-01-29T22:55:14.013Z,0.76
2024-01-29T22:57:41.758Z,0.74
2024-01-29T23:00:23.561Z,0.73
2024-01-29T23:02:51.341Z,0.68
2024-01-29T23:05:18.970Z,0.60
2024-01-29T23:07:47.839Z,0.65
2024-01-29T23:10:15.616Z,0.65
2024-01-29T23:12:44.022Z,0.60
2024-01-29T23:15:12.216Z,0.55
2024-01-29T23:17:40.121Z,0.35
2024-01-29T23:20:11.674Z,0.27
2024-01-29T23:22:39.177Z,0.08
2024-01-29T23:25:07.137Z,0.11
2024-01-29T23:27:37.176Z,-0.07
2024-01-29T23:30:09.436Z,-0.14
2024-01-29T23:32:37.203Z,-0.18
2024-01-29T23:35:05.454Z,-0.22
2024-01-29T23:37:33.118Z,-0.39
2024-01-29T23:40:00.939Z,-0.67
2024-01-29T23:42:28.824Z,-0.77
2024-01-29T23:44:56.633Z,-0.74
2024-01-29T23:47:24.316Z,-0.74
2024-01-29T23:49:52.100Z,-0.80
2024-01-29T23:52:28.240Z,-0.80
2024-01-29T23:54:56.443Z,-0.82
2024-01-29T23:57:24.313Z,-0.79
2024-01-29T23:59:52.235Z,-0.85
